createdAt,value
2018-12-04T00:00:56.441Z,14.70
2018-12-04T00:01:56.430Z,14.90
2018-12-04T00:02:56.423Z,13.10
2018-12-04T00:03:56.417Z,14.90
2018-12-04T00:04:56.397Z,13.00
2018-12-04T00:05:56.387Z,13.60
2018-12-04T00:06:56.380Z,13.60
2018-12-04T00:07:56.369Z,12.40
2018-12-04T00:08:56.365Z,13.70
2018-12-04T00:09:56.343Z,12.30
2018-12-04T00:10:56.335Z,15.40
2018-12-04T00:11:56.326Z,11.70
2018-12-04T00:12:56.312Z,13.90
2018-12-04T00:13:56.327Z,13.00
2018-12-04T00:14:56.292Z,11.70
2018-12-04T00:15:56.281Z,12.70
2018-12-04T00:16:56.270Z,12.00
2018-12-04T00:17:56.261Z,15.40
2018-12-04T00:18:56.249Z,15.40
2018-12-04T00:19:56.247Z,11.10
2018-12-04T00:20:56.227Z,13.30
2018-12-04T00:21:56.217Z,11.30
2018-12-04T00:22:56.205Z,14.30
2018-12-04T00:23:56.194Z,11.00
2018-12-04T00:24:56.192Z,12.70
2018-12-04T00:25:56.173Z,12.90
2018-12-04T00:26:56.161Z,11.70
2018-12-04T00:27:56.156Z,11.00
2018-12-04T00:28:56.139Z,13.40
2018-12-04T00:29:56.138Z,12.90
2018-12-04T00:30:56.118Z,12.00
2018-12-04T00:31:56.113Z,12.50
2018-12-04T00:32:56.097Z,14.50
2018-12-04T00:33:56.093Z,12.50
2018-12-04T00:34:56.083Z,11.60
2018-12-04T00:35:56.066Z,10.50
2018-12-04T00:36:56.060Z,11.90
2018-12-04T00:37:56.050Z,12.50
2018-12-04T00:38:56.036Z,11.30
2018-12-04T00:39:56.035Z,11.90
2018-12-04T00:40:56.011Z,11.10
2018-12-04T00:41:56.000Z,11.30
2018-12-04T00:42:55.989Z,11.70
2018-12-04T00:43:55.978Z,11.20
2018-12-04T00:44:55.978Z,12.40
2018-12-04T00:45:55.957Z,11.60
2018-12-04T00:46:55.946Z,13.20
2018-12-04T00:47:55.934Z,9.90
2018-12-04T00:48:55.926Z,10.90
2018-12-04T00:49:55.939Z,10.00
2018-12-04T00:50:55.910Z,10.40
2018-12-04T00:51:55.891Z,8.50
2018-12-04T00:52:55.881Z,10.40
2018-12-04T00:53:55.871Z,12.10
2018-12-04T00:54:55.862Z,9.90
2018-12-04T00:55:55.862Z,11.70
2018-12-04T00:56:55.840Z,10.30
2018-12-04T00:57:55.829Z,10.10
2018-12-04T00:58:55.815Z,11.20
2018-12-04T00:59:55.806Z,13.50
2018-12-04T01:00:55.808Z,12.60
2018-12-04T01:01:55.784Z,11.70
2018-12-04T01:02:55.777Z,11.20
2018-12-04T01:03:55.761Z,13.50
2018-12-04T01:04:55.750Z,12.10
2018-12-04T01:05:55.747Z,11.60
2018-12-04T01:06:55.732Z,14.90
2018-12-04T01:07:55.723Z,13.30
2018-12-04T01:08:55.709Z,14.20
2018-12-04T01:09:55.698Z,13.50
2018-12-04T01:10:55.693Z,12.70
2018-12-04T01:11:55.676Z,15.00
2018-12-04T01:12:55.665Z,14.40
2018-12-04T01:13:55.653Z,14.90
2018-12-04T01:14:55.642Z,10.80
2018-12-04T01:15:55.640Z,13.60
2018-12-04T01:16:55.622Z,11.90
2018-12-04T01:17:55.611Z,13.40
2018-12-04T01:18:55.601Z,16.20
2018-12-04T01:19:55.592Z,15.20
2018-12-04T01:20:55.589Z,13.60
2018-12-04T01:21:55.567Z,15.60
2018-12-04T01:22:55.604Z,12.80
2018-12-04T01:23:55.545Z,14.50
2018-12-04T01:24:55.535Z,14.50
2018-12-04T01:25:55.533Z,15.30
2018-12-04T01:26:55.513Z,14.40
2018-12-04T01:27:55.504Z,15.50
2018-12-04T01:28:55.491Z,16.70
2018-12-04T01:29:55.484Z,19.90
2018-12-04T01:30:55.478Z,16.50
2018-12-04T01:31:55.463Z,18.90
2018-12-04T01:32:55.448Z,15.10
2018-12-04T01:33:55.437Z,16.90
2018-12-04T01:34:55.427Z,15.70
2018-12-04T01:35:55.430Z,15.90
2018-12-04T01:36:55.410Z,15.90
2018-12-04T01:37:55.397Z,12.60
2018-12-04T01:38:55.384Z,14.40
2018-12-04T01:39:55.375Z,15.60
2018-12-04T01:40:55.371Z,14.60
2018-12-04T01:41:55.350Z,13.40
2018-12-04T01:42:55.342Z,15.30
2018-12-04T01:43:55.329Z,15.80
2018-12-04T01:44:55.319Z,15.80
2018-12-04T01:45:55.318Z,14.40
2018-12-04T01:46:55.299Z,18.20
2018-12-04T01:47:55.286Z,14.90
2018-12-04T01:48:55.278Z,13.50
2018-12-04T01:49:55.267Z,13.10
2018-12-04T01:50:55.280Z,16.70
2018-12-04T01:51:55.245Z,16.20
2018-12-04T01:52:55.232Z,13.10
2018-12-04T01:53:55.221Z,16.70
2018-12-04T01:54:55.213Z,16.20
2018-12-04T01:55:55.199Z,13.00
2018-12-04T01:56:55.197Z,16.40
2018-12-04T01:57:55.178Z,15.60
2018-12-04T01:58:55.168Z,19.60
2018-12-04T01:59:55.157Z,14.80
2018-12-04T02:00:55.151Z,15.20
2018-12-04T02:01:55.146Z,12.50
2018-12-04T02:02:55.125Z,14.70
2018-12-04T02:03:55.114Z,15.90
2018-12-04T02:04:55.105Z,18.10
2018-12-04T02:05:55.091Z,13.40
2018-12-04T02:06:55.091Z,14.20
2018-12-04T02:07:55.070Z,13.20
2018-12-04T02:08:55.063Z,14.30
2018-12-04T02:09:55.050Z,12.10
2018-12-04T02:10:55.038Z,13.00
2018-12-04T02:11:55.036Z,12.70
2018-12-04T02:12:55.017Z,13.20
2018-12-04T02:13:55.006Z,14.10
2018-12-04T02:14:54.994Z,11.90
2018-12-04T02:15:54.986Z,12.60
2018-12-04T02:16:54.982Z,13.20
2018-12-04T02:17:54.965Z,14.50
2018-12-04T02:18:54.954Z,18.60
2018-12-04T02:19:54.943Z,14.00
2018-12-04T02:20:54.930Z,14.20
2018-12-04T02:21:54.945Z,14.70
2018-12-04T02:22:54.908Z,11.00
2018-12-04T02:23:54.901Z,12.90
2018-12-04T02:24:54.887Z,13.80
2018-12-04T02:25:54.875Z,13.40
2018-12-04T02:26:54.871Z,15.00
2018-12-04T02:27:54.866Z,11.70
2018-12-04T02:28:54.844Z,12.30
2018-12-04T02:29:54.836Z,13.40
2018-12-04T02:30:54.821Z,12.40
2018-12-04T02:31:54.811Z,13.10
2018-12-04T02:32:54.808Z,10.40
2018-12-04T02:33:54.792Z,10.50
2018-12-04T02:34:54.779Z,14.70
2018-12-04T02:35:54.772Z,12.70
2018-12-04T02:36:54.758Z,16.70
2018-12-04T02:37:54.754Z,11.50
2018-12-04T02:38:54.741Z,9.80
2018-12-04T02:39:54.726Z,11.40
2018-12-04T02:40:54.714Z,12.40
2018-12-04T02:41:54.704Z,14.40
2018-12-04T02:42:54.703Z,11.30
2018-12-04T02:43:54.682Z,10.40
2018-12-04T02:44:54.674Z,12.40
2018-12-04T02:45:54.662Z,12.10
2018-12-04T02:46:54.651Z,10.60
2018-12-04T02:47:54.647Z,11.60
2018-12-04T02:48:54.634Z,14.70
2018-12-04T02:49:54.617Z,10.80
2018-12-04T02:50:54.607Z,10.60
2018-12-04T02:51:54.599Z,10.90
2018-12-04T02:52:54.593Z,12.60
2018-12-04T02:53:54.574Z,9.70
2018-12-04T02:54:54.563Z,10.40
2018-12-04T02:55:54.563Z,9.00
2018-12-04T02:56:54.543Z,8.60
2018-12-04T02:57:54.540Z,8.20
2018-12-04T02:58:54.525Z,9.50
2018-12-04T02:59:54.511Z,8.60
2018-12-04T03:00:54.499Z,9.80
2018-12-04T03:01:54.512Z,8.10
2018-12-04T03:02:54.490Z,9.40
2018-12-04T03:03:54.469Z,9.10
2018-12-04T03:04:54.457Z,14.00
2018-12-04T03:05:54.449Z,9.60
2018-12-04T03:06:54.435Z,8.90
2018-12-04T03:07:54.452Z,8.20
2018-12-04T03:08:54.418Z,7.50
2018-12-04T03:09:54.409Z,10.00
2018-12-04T03:10:54.394Z,11.00
2018-12-04T03:11:54.382Z,10.00
2018-12-04T03:12:54.372Z,12.30
2018-12-04T03:13:54.370Z,10.30
2018-12-04T03:14:54.351Z,9.80
2018-12-04T03:15:54.341Z,11.40
2018-12-04T03:16:54.330Z,10.00
2018-12-04T03:17:54.320Z,9.50
2018-12-04T03:18:54.317Z,7.90
2018-12-04T03:19:54.297Z,8.00
2018-12-04T03:20:54.286Z,7.80
2018-12-04T03:21:54.278Z,6.60
2018-12-04T03:22:54.272Z,7.00
2018-12-04T03:23:54.285Z,6.60
2018-12-04T03:24:54.243Z,7.40
2018-12-04T03:25:54.238Z,6.30
2018-12-04T03:26:54.222Z,6.80
2018-12-04T03:27:54.216Z,6.50
2018-12-04T03:28:54.202Z,4.60
2018-12-04T03:29:54.199Z,6.10
2018-12-04T03:30:54.181Z,3.80
2018-12-04T03:31:54.175Z,4.60
2018-12-04T03:32:54.160Z,4.60
2018-12-04T03:33:54.152Z,2.90
2018-12-04T03:34:54.147Z,2.80
2018-12-04T03:35:54.126Z,2.40
2018-12-04T03:36:54.119Z,2.30
2018-12-04T03:37:54.105Z,3.60
2018-12-04T03:38:54.118Z,2.90
2018-12-04T03:39:54.114Z,2.40
2018-12-04T03:40:54.073Z,3.40
2018-12-04T03:41:54.062Z,2.70
2018-12-04T03:42:54.053Z,2.90
2018-12-04T03:43:54.047Z,3.40
2018-12-04T03:44:54.042Z,2.50
2018-12-04T03:45:54.020Z,2.30
2018-12-04T03:46:54.009Z,2.70
2018-12-04T03:47:54.000Z,3.30
2018-12-04T03:48:53.989Z,2.60
2018-12-04T03:49:53.985Z,4.30
2018-12-04T03:50:53.971Z,3.10
2018-12-04T03:51:53.954Z,2.30
2018-12-04T03:52:53.943Z,4.00
2018-12-04T03:53:53.934Z,4.20
2018-12-04T03:54:53.933Z,3.20
2018-12-04T03:55:53.936Z,2.50
2018-12-04T03:56:53.901Z,2.90
2018-12-04T03:57:53.890Z,4.20
2018-12-04T03:58:53.878Z,3.40
2018-12-04T03:59:53.877Z,3.10
2018-12-04T04:00:53.856Z,3.60
2018-12-04T04:01:53.856Z,4.80
2018-12-04T04:02:53.845Z,3.60
2018-12-04T04:03:53.829Z,3.60
2018-12-04T04:04:53.841Z,3.80
2018-12-04T04:05:53.804Z,4.80
2018-12-04T04:06:53.811Z,5.00
2018-12-04T04:07:53.784Z,4.00
2018-12-04T04:08:53.775Z,5.00
2018-12-04T04:09:53.761Z,5.30
2018-12-04T04:10:53.758Z,4.30
2018-12-04T04:11:53.740Z,5.30
2018-12-04T04:12:53.732Z,5.30
2018-12-04T04:13:53.724Z,6.30
2018-12-04T04:14:53.708Z,3.90
2018-12-04T04:15:53.705Z,4.30
2018-12-04T04:16:53.685Z,6.50
2018-12-04T04:17:53.674Z,4.70
2018-12-04T04:18:53.664Z,6.10
2018-12-04T04:19:53.654Z,6.80
2018-12-04T04:20:53.655Z,5.10
2018-12-04T04:21:53.672Z,5.30
2018-12-04T04:22:53.633Z,5.70
2018-12-04T04:23:53.611Z,4.30
2018-12-04T04:24:53.599Z,5.80
2018-12-04T04:25:53.600Z,5.60
2018-12-04T04:26:53.579Z,5.80
2018-12-04T04:27:53.582Z,7.60
2018-12-04T04:28:53.556Z,6.90
2018-12-04T04:29:53.544Z,5.40
2018-12-04T04:30:53.543Z,6.00
2018-12-04T04:31:53.525Z,5.00
2018-12-04T04:32:53.513Z,5.90
2018-12-04T04:33:53.500Z,6.30
2018-12-04T04:34:53.493Z,5.80
2018-12-04T04:35:53.488Z,7.20
2018-12-04T04:36:53.471Z,4.70
2018-12-04T04:37:53.463Z,5.70
2018-12-04T04:38:53.449Z,6.60
2018-12-04T04:39:53.440Z,7.90
2018-12-04T04:40:53.437Z,7.90
2018-12-04T04:41:53.419Z,8.50
2018-12-04T04:42:53.411Z,7.40
2018-12-04T04:43:53.395Z,6.50
2018-12-04T04:44:53.385Z,6.30
2018-12-04T04:45:53.402Z,5.60
2018-12-04T04:46:53.363Z,9.00
2018-12-04T04:47:53.362Z,6.10
2018-12-04T04:48:53.345Z,8.00
2018-12-04T04:49:53.335Z,6.50
2018-12-04T04:50:53.321Z,8.80
2018-12-04T04:51:53.320Z,7.80
2018-12-04T04:52:53.305Z,7.30
2018-12-04T04:53:53.289Z,7.60
2018-12-04T04:54:53.280Z,6.50
2018-12-04T04:55:53.267Z,8.30
2018-12-04T04:56:53.291Z,9.70
2018-12-04T04:57:53.246Z,5.90
2018-12-04T04:58:53.236Z,7.80
2018-12-04T04:59:53.226Z,6.60
2018-12-04T05:00:53.216Z,6.20
2018-12-04T05:01:53.212Z,7.90
2018-12-04T05:02:53.193Z,10.70
2018-12-04T05:03:53.237Z,8.70
2018-12-04T05:04:53.175Z,8.80
2018-12-04T05:05:53.163Z,8.90
2018-12-04T05:06:53.159Z,9.00
2018-12-04T05:07:53.149Z,7.60
2018-12-04T05:08:53.131Z,9.60
2018-12-04T05:09:53.120Z,9.40
2018-12-04T05:10:53.110Z,10.50
2018-12-04T05:11:53.127Z,8.70
2018-12-04T05:12:53.092Z,8.00
2018-12-04T05:13:53.077Z,10.60
2018-12-04T05:14:53.067Z,7.60
2018-12-04T05:15:53.056Z,9.10
2018-12-04T05:16:53.046Z,7.10
2018-12-04T05:17:53.043Z,9.80
2018-12-04T05:18:53.031Z,9.70
2018-12-04T05:19:53.019Z,9.50
2018-12-04T05:20:53.025Z,10.00
2018-12-04T05:21:52.992Z,8.80
2018-12-04T05:22:52.993Z,11.50
2018-12-04T05:23:52.980Z,9.90
2018-12-04T05:24:52.967Z,9.00
2018-12-04T05:25:52.949Z,8.70
2018-12-04T05:26:52.939Z,7.20
2018-12-04T05:27:52.940Z,10.80
2018-12-04T05:28:52.922Z,10.70
2018-12-04T05:29:52.915Z,10.10
2018-12-04T05:30:52.902Z,7.40
2018-12-04T05:31:52.886Z,11.40
2018-12-04T05:32:52.887Z,7.40
2018-12-04T05:33:52.865Z,10.00
2018-12-04T05:34:52.859Z,10.80
2018-12-04T05:35:52.846Z,10.50
2018-12-04T05:36:52.837Z,11.60
2018-12-04T05:37:52.835Z,9.10
2018-12-04T05:38:52.812Z,9.40
2018-12-04T05:39:52.803Z,10.60
2018-12-04T05:40:52.792Z,9.00
2018-12-04T05:41:52.781Z,8.30
2018-12-04T05:42:52.785Z,10.30
2018-12-04T05:43:52.760Z,9.20
2018-12-04T05:44:52.751Z,12.20
2018-12-04T05:45:52.739Z,8.40
2018-12-04T05:46:52.728Z,9.90
2018-12-04T05:47:52.731Z,10.60
2018-12-04T05:48:52.707Z,9.90
2018-12-04T05:49:52.697Z,11.50
2018-12-04T05:50:52.689Z,12.70
2018-12-04T05:51:52.674Z,9.10
2018-12-04T05:52:52.676Z,10.30
2018-12-04T05:53:52.656Z,12.30
2018-12-04T05:54:52.643Z,12.30
2018-12-04T05:55:52.634Z,8.60
2018-12-04T05:56:52.622Z,10.10
2018-12-04T05:57:52.618Z,10.50
2018-12-04T05:58:52.601Z,15.30
2018-12-04T05:59:52.594Z,9.50
2018-12-04T06:00:52.584Z,9.70
2018-12-04T06:01:52.570Z,8.70
2018-12-04T06:02:52.570Z,11.80
2018-12-04T06:03:52.547Z,10.60
2018-12-04T06:04:52.542Z,9.70
2018-12-04T06:05:52.533Z,11.80
2018-12-04T06:06:52.515Z,11.00
2018-12-04T06:07:52.514Z,12.80
2018-12-04T06:08:52.495Z,11.40
2018-12-04T06:09:52.491Z,10.10
2018-12-04T06:10:52.476Z,10.00
2018-12-04T06:11:52.462Z,11.20
2018-12-04T06:12:52.487Z,10.00
2018-12-04T06:13:52.443Z,12.90
2018-12-04T06:14:52.433Z,12.80
2018-12-04T06:15:52.425Z,13.40
2018-12-04T06:16:52.410Z,12.60
2018-12-04T06:17:52.398Z,13.40
2018-12-04T06:18:52.396Z,9.70
2018-12-04T06:19:52.380Z,10.40
2018-12-04T06:20:52.370Z,10.20
2018-12-04T06:21:52.359Z,14.10
2018-12-04T06:22:52.352Z,12.20
2018-12-04T06:23:52.349Z,12.40
2018-12-04T06:24:52.324Z,12.60
2018-12-04T06:25:52.318Z,11.30
2018-12-04T06:26:52.302Z,11.50
2018-12-04T06:27:52.290Z,14.60
2018-12-04T06:28:52.291Z,12.20
2018-12-04T06:29:52.271Z,12.40
2018-12-04T06:30:52.261Z,13.00
2018-12-04T06:31:52.250Z,15.50
2018-12-04T06:32:52.239Z,11.30
2018-12-04T06:33:52.241Z,10.60
2018-12-04T06:34:52.219Z,12.90
2018-12-04T06:35:52.206Z,12.00
2018-12-04T06:36:52.198Z,10.40
2018-12-04T06:37:52.187Z,13.70
2018-12-04T06:38:52.182Z,10.20
2018-12-04T06:39:52.164Z,11.90
2018-12-04T06:40:52.158Z,12.70
2018-12-04T06:41:52.142Z,12.60
2018-12-04T06:42:52.135Z,13.00
2018-12-04T06:43:52.130Z,12.20
2018-12-04T06:44:52.111Z,14.40
2018-12-04T06:45:52.101Z,11.10
2018-12-04T06:46:52.088Z,13.50
2018-12-04T06:47:52.077Z,12.50
2018-12-04T06:48:52.075Z,14.70
2018-12-04T06:49:52.057Z,15.30
2018-12-04T06:50:52.046Z,14.10
2018-12-04T06:51:52.038Z,9.00
2018-12-04T06:52:52.025Z,10.30
2018-12-04T06:53:52.042Z,12.70
2018-12-04T06:54:52.004Z,13.80
2018-12-04T06:55:51.991Z,15.20
2018-12-04T06:56:51.988Z,12.70
2018-12-04T06:57:51.970Z,10.80
2018-12-04T06:58:51.965Z,15.00
2018-12-04T06:59:51.958Z,11.50
2018-12-04T07:00:51.938Z,15.70
2018-12-04T07:01:51.932Z,13.10
2018-12-04T07:02:51.917Z,13.30
2018-12-04T07:03:51.911Z,12.90
2018-12-04T07:04:51.914Z,12.30
2018-12-04T07:05:51.885Z,15.30
2018-12-04T07:06:51.875Z,12.10
2018-12-04T07:07:51.864Z,12.80
2018-12-04T07:08:51.854Z,10.80
2018-12-04T07:09:51.854Z,14.10
2018-12-04T07:10:51.837Z,9.70
2018-12-04T07:11:51.822Z,9.20
2018-12-04T07:12:51.810Z,15.30
2018-12-04T07:13:51.799Z,11.00
2018-12-04T07:14:51.797Z,15.60
2018-12-04T07:15:51.782Z,12.10
2018-12-04T07:16:51.767Z,10.00
2018-12-04T07:17:51.759Z,12.00
2018-12-04T07:18:51.745Z,11.20
2018-12-04T07:19:51.747Z,9.10
2018-12-04T07:20:51.737Z,12.30
2018-12-04T07:21:51.719Z,12.10
2018-12-04T07:22:51.704Z,12.50
2018-12-04T07:23:51.696Z,12.80
2018-12-04T07:24:51.691Z,12.40
2018-12-04T07:25:51.677Z,9.90
2018-12-04T07:26:51.661Z,12.80
2018-12-04T07:27:51.651Z,12.50
2018-12-04T07:28:51.642Z,11.20
2018-12-04T07:29:51.656Z,12.50
2018-12-04T07:30:51.619Z,13.10
2018-12-04T07:31:51.608Z,13.20
2018-12-04T07:32:51.597Z,11.40
2018-12-04T07:33:51.586Z,12.50
2018-12-04T07:34:51.577Z,13.50
2018-12-04T07:35:51.577Z,12.90
2018-12-04T07:36:51.560Z,12.80
2018-12-04T07:37:51.544Z,10.90
2018-12-04T07:38:51.534Z,12.80
2018-12-04T07:39:51.522Z,12.50
2018-12-04T07:40:51.529Z,13.90
2018-12-04T07:41:51.501Z,13.30
2018-12-04T07:42:51.491Z,13.30
2018-12-04T07:43:51.480Z,12.00
2018-12-04T07:44:51.473Z,13.70
2018-12-04T07:45:51.467Z,11.40
2018-12-04T07:46:51.447Z,13.30
2018-12-04T07:47:51.438Z,13.00
2018-12-04T07:48:51.426Z,12.70
2018-12-04T07:49:51.417Z,16.60
2018-12-04T07:50:51.418Z,12.90
2018-12-04T07:51:51.398Z,14.00
2018-12-04T07:52:51.388Z,14.10
2018-12-04T07:53:51.374Z,14.10
2018-12-04T07:54:51.361Z,13.60
2018-12-04T07:55:51.359Z,17.80
2018-12-04T07:56:51.346Z,13.10
2018-12-04T07:57:51.331Z,12.00
2018-12-04T07:58:51.322Z,12.00
2018-12-04T07:59:51.310Z,11.30
2018-12-04T08:00:51.311Z,15.70
2018-12-04T08:01:51.291Z,11.50
2018-12-04T08:02:51.277Z,15.10
2018-12-04T08:03:51.271Z,13.50
2018-12-04T08:04:51.259Z,15.30
2018-12-04T08:05:51.253Z,11.80
2018-12-04T08:06:51.235Z,14.10
2018-12-04T08:07:51.226Z,11.00
2018-12-04T08:08:51.213Z,14.00
2018-12-04T08:09:51.204Z,14.60
2018-12-04T08:10:51.201Z,12.10
2018-12-04T08:11:51.184Z,13.60
2018-12-04T08:12:51.171Z,13.60
2018-12-04T08:13:51.162Z,15.30
2018-12-04T08:14:51.150Z,14.20
2018-12-04T08:15:51.147Z,11.60
2018-12-04T08:16:51.128Z,17.90
2018-12-04T08:17:51.118Z,15.10
2018-12-04T08:18:51.107Z,13.90
2018-12-04T08:19:51.097Z,12.90
2018-12-04T08:20:51.114Z,12.20
2018-12-04T08:21:51.075Z,14.30
2018-12-04T08:22:51.065Z,15.70
2018-12-04T08:23:51.054Z,17.10
2018-12-04T08:24:51.047Z,15.70
2018-12-04T08:25:51.035Z,19.00
2018-12-04T08:26:51.031Z,14.80
2018-12-04T08:27:51.012Z,13.40
2018-12-04T08:28:51.001Z,17.40
2018-12-04T08:29:50.990Z,14.60
2018-12-04T08:30:50.980Z,15.70
2018-12-04T08:31:50.977Z,18.50
2018-12-04T08:32:50.957Z,11.90
2018-12-04T08:33:50.949Z,14.40
2018-12-04T08:34:50.936Z,15.40
2018-12-04T08:35:50.926Z,15.30
2018-12-04T08:36:50.926Z,14.20
2018-12-04T08:37:50.914Z,14.60
2018-12-04T08:38:50.894Z,14.50
2018-12-04T08:39:50.886Z,16.00
2018-12-04T08:40:50.874Z,15.20
2018-12-04T08:41:50.881Z,12.20
2018-12-04T08:42:50.856Z,11.60
2018-12-04T08:43:50.841Z,16.60
2018-12-04T08:44:50.835Z,15.90
2018-12-04T08:45:50.824Z,13.40
2018-12-04T08:46:50.824Z,15.70
2018-12-04T08:47:50.804Z,15.20
2018-12-04T08:48:50.789Z,14.20
2018-12-04T08:49:50.783Z,15.40
2018-12-04T08:50:50.773Z,13.90
2018-12-04T08:51:50.787Z,13.50
2018-12-04T08:52:50.748Z,12.90
2018-12-04T08:53:50.735Z,16.30
2018-12-04T08:54:50.725Z,13.90
2018-12-04T08:55:50.715Z,13.90
2018-12-04T08:56:50.704Z,17.60
2018-12-04T08:57:50.706Z,14.20
2018-12-04T08:58:50.686Z,16.80
2018-12-04T08:59:50.672Z,12.80
2018-12-04T09:00:50.664Z,14.30
2018-12-04T09:01:50.652Z,13.70
2018-12-04T09:02:50.652Z,13.90
2018-12-04T09:03:50.629Z,15.50
2018-12-04T09:04:50.622Z,14.90
2018-12-04T09:05:50.611Z,14.90
2018-12-04T09:06:50.694Z,16.30
2018-12-04T09:07:50.598Z,14.00
2018-12-04T09:08:50.622Z,12.60
2018-12-04T09:09:50.567Z,15.90
2018-12-04T09:10:50.555Z,16.80
2018-12-04T09:11:50.545Z,15.80
2018-12-04T09:12:50.545Z,16.00
2018-12-04T09:13:50.524Z,15.20
2018-12-04T09:14:50.515Z,14.30
2018-12-04T09:15:50.502Z,14.10
2018-12-04T09:16:50.493Z,14.50
2018-12-04T09:17:50.489Z,15.30
2018-12-04T09:18:50.491Z,12.90
2018-12-04T09:19:50.469Z,16.40
2018-12-04T09:20:50.481Z,12.40
2018-12-04T09:21:50.475Z,12.50
2018-12-04T09:22:50.440Z,17.20
2018-12-04T09:23:50.462Z,13.60
2018-12-04T09:24:50.456Z,16.00
2018-12-04T09:25:50.413Z,16.10
2018-12-04T09:26:50.433Z,11.20
2018-12-04T09:27:50.471Z,13.00
2018-12-04T09:28:50.396Z,14.90
2018-12-04T09:29:50.392Z,13.50
2018-12-04T09:30:50.345Z,11.40
2018-12-04T09:31:50.332Z,13.20
2018-12-04T09:32:50.323Z,13.40
2018-12-04T09:33:50.320Z,13.40
2018-12-04T09:34:50.300Z,14.00
2018-12-04T09:35:50.289Z,12.10
2018-12-04T09:36:50.278Z,13.10
2018-12-04T09:37:50.268Z,13.30
2018-12-04T09:38:50.269Z,12.30
2018-12-04T09:39:50.298Z,13.50
2018-12-04T09:40:50.236Z,12.90
2018-12-04T09:41:50.227Z,14.10
2018-12-04T09:42:50.215Z,13.40
2018-12-04T09:43:50.213Z,11.80
2018-12-04T09:44:50.195Z,15.10
2018-12-04T09:45:50.183Z,13.60
2018-12-04T09:46:50.173Z,13.10
2018-12-04T09:47:50.165Z,11.20
2018-12-04T09:48:50.159Z,15.60
2018-12-04T09:49:50.141Z,11.40
2018-12-04T09:50:50.175Z,13.90
2018-12-04T09:51:50.133Z,13.80
2018-12-04T09:52:50.108Z,13.50
2018-12-04T09:53:52.219Z,12.30
2018-12-04T09:54:50.087Z,15.20
2018-12-04T09:55:50.078Z,15.80
2018-12-04T09:56:50.066Z,12.70
2018-12-04T09:57:50.055Z,14.30
2018-12-04T09:58:50.052Z,14.20
2018-12-04T09:59:50.041Z,13.40
2018-12-04T10:00:50.022Z,13.50
2018-12-04T10:01:50.012Z,13.90
2018-12-04T10:02:50.006Z,13.90
2018-12-04T10:03:49.998Z,13.50
2018-12-04T10:04:49.985Z,12.30
2018-12-04T10:05:49.970Z,13.00
2018-12-04T10:06:49.959Z,13.20
2018-12-04T10:07:49.948Z,12.50
2018-12-04T10:08:49.946Z,14.60
2018-12-04T10:09:49.926Z,11.00
2018-12-04T10:10:49.916Z,12.50
2018-12-04T10:11:49.906Z,16.90
2018-12-04T10:12:50.030Z,15.40
2018-12-04T10:13:49.891Z,12.20
2018-12-04T10:14:49.873Z,11.60
2018-12-04T10:15:49.862Z,12.20
2018-12-04T10:16:49.853Z,13.60
2018-12-04T10:17:49.841Z,15.10
2018-12-04T10:18:49.838Z,17.10
2018-12-04T10:19:49.820Z,13.70
2018-12-04T10:20:49.809Z,12.90
2018-12-04T10:21:49.798Z,12.90
2018-12-04T10:22:49.812Z,9.90
2018-12-04T10:23:49.785Z,13.70
2018-12-04T10:24:49.770Z,12.90
2018-12-04T10:25:49.755Z,13.80
2018-12-04T10:26:49.744Z,15.50
2018-12-04T10:27:49.735Z,13.00
2018-12-04T10:28:49.787Z,17.80
2018-12-04T10:29:49.714Z,11.90
2018-12-04T10:30:49.702Z,13.90
2018-12-04T10:31:55.783Z,15.70
2018-12-04T10:32:50.680Z,13.00
2018-12-04T10:33:49.699Z,16.20
2018-12-04T10:34:49.663Z,14.30
2018-12-04T10:35:49.656Z,13.30
2018-12-04T10:36:49.640Z,12.90
2018-12-04T10:37:49.627Z,13.80
2018-12-04T10:38:49.617Z,14.10
2018-12-04T10:39:49.613Z,11.80
2018-12-04T10:40:49.594Z,12.50
2018-12-04T10:41:49.584Z,17.60
2018-12-04T10:42:49.576Z,11.60
2018-12-04T10:43:49.564Z,14.30
2018-12-04T10:44:49.560Z,12.00
2018-12-04T10:45:49.550Z,13.20
2018-12-04T10:46:49.533Z,13.30
2018-12-04T10:47:49.521Z,13.00
2018-12-04T10:48:49.510Z,13.80
2018-12-04T10:49:49.507Z,11.30
2018-12-04T10:50:49.488Z,17.20
2018-12-04T10:51:49.479Z,13.70
2018-12-04T10:52:49.467Z,12.50
2018-12-04T10:53:49.458Z,14.10
2018-12-04T10:54:49.456Z,15.90
2018-12-04T10:55:49.436Z,11.30
2018-12-04T10:56:49.426Z,9.80
2018-12-04T10:57:49.415Z,11.60
2018-12-04T10:58:49.404Z,12.20
2018-12-04T10:59:49.402Z,15.00
2018-12-04T11:00:49.383Z,12.90
2018-12-04T11:01:49.372Z,11.30
2018-12-04T11:02:49.361Z,13.20
2018-12-04T11:03:49.352Z,10.70
2018-12-04T11:04:49.349Z,12.20
2018-12-04T11:05:49.330Z,13.00
2018-12-04T11:06:49.320Z,12.40
2018-12-04T11:07:49.310Z,12.10
2018-12-04T11:08:49.298Z,12.20
2018-12-04T11:09:49.296Z,12.70
2018-12-04T11:10:49.278Z,10.80
2018-12-04T11:11:49.266Z,13.70
2018-12-04T11:12:49.259Z,12.50
2018-12-04T11:13:49.248Z,11.00
2018-12-04T11:14:49.243Z,10.30
2018-12-04T11:15:49.228Z,12.30
2018-12-04T11:16:49.213Z,12.60
2018-12-04T11:17:49.203Z,9.70
2018-12-04T11:18:49.192Z,13.80
2018-12-04T11:19:49.192Z,8.10
2018-12-04T11:20:49.175Z,11.80
2018-12-04T11:21:49.160Z,12.90
2018-12-04T11:22:49.153Z,12.80
2018-12-04T11:23:49.139Z,11.20
2018-12-04T11:24:49.141Z,10.70
2018-12-04T11:25:49.125Z,10.90
2018-12-04T11:26:49.110Z,12.10
2018-12-04T11:27:49.096Z,11.90
2018-12-04T11:28:49.091Z,11.30
2018-12-04T11:29:49.084Z,10.90
2018-12-04T11:30:49.065Z,10.30
2018-12-04T11:31:49.054Z,9.20
2018-12-04T11:32:49.050Z,10.30
2018-12-04T11:33:49.036Z,11.40
2018-12-04T11:34:49.054Z,11.90
2018-12-04T11:35:49.013Z,8.20
2018-12-04T11:36:49.001Z,11.50
2018-12-04T11:37:48.990Z,9.40
2018-12-04T11:38:48.981Z,11.80
2018-12-04T11:39:48.970Z,13.20
2018-12-04T11:40:48.967Z,12.20
2018-12-04T11:41:48.948Z,13.10
2018-12-04T11:42:48.938Z,11.50
2018-12-04T11:43:48.928Z,10.20
2018-12-04T11:44:48.920Z,13.80
2018-12-04T11:45:48.914Z,9.30
2018-12-04T11:46:48.895Z,11.70
2018-12-04T11:47:48.885Z,10.60
2018-12-04T11:48:48.875Z,11.10
2018-12-04T11:49:48.864Z,11.20
2018-12-04T11:50:48.862Z,11.30
2018-12-04T11:51:48.842Z,9.50
2018-12-04T11:52:48.832Z,11.10
2018-12-04T11:53:48.821Z,12.90
2018-12-04T11:54:48.813Z,10.70
2018-12-04T11:55:48.808Z,10.50
2018-12-04T11:56:48.794Z,14.20
2018-12-04T11:57:48.779Z,15.20
2018-12-04T11:58:48.768Z,12.30
2018-12-04T11:59:48.758Z,9.40
2018-12-04T12:00:48.749Z,13.90
2018-12-04T12:01:48.749Z,14.10
2018-12-04T12:02:48.730Z,11.20
2018-12-04T12:03:48.718Z,12.50
2018-12-04T12:04:48.709Z,10.00
2018-12-04T12:05:48.695Z,9.40
2018-12-04T12:06:48.693Z,10.00
2018-12-04T12:07:48.677Z,10.30
2018-12-04T12:08:48.663Z,13.60
2018-12-04T12:09:48.656Z,14.20
2018-12-04T12:10:48.642Z,10.70
2018-12-04T12:11:48.639Z,11.80
2018-12-04T12:12:48.622Z,8.50
2018-12-04T12:13:48.612Z,11.90
2018-12-04T12:14:48.600Z,9.20
2018-12-04T12:15:48.590Z,14.20
2018-12-04T12:16:48.587Z,12.40
2018-12-04T12:17:48.568Z,11.70
2018-12-04T12:18:48.557Z,14.50
2018-12-04T12:19:48.547Z,9.80
2018-12-04T12:20:48.537Z,10.80
2018-12-04T12:21:48.534Z,10.20
2018-12-04T12:22:48.514Z,11.60
2018-12-04T12:23:48.507Z,11.10
2018-12-04T12:24:48.494Z,11.00
2018-12-04T12:25:48.487Z,11.60
2018-12-04T12:26:48.487Z,12.90
2018-12-04T12:27:48.463Z,12.40
2018-12-04T12:28:48.452Z,12.90
2018-12-04T12:29:48.442Z,12.50
2018-12-04T12:30:48.430Z,11.20
2018-12-04T12:31:48.428Z,8.70
2018-12-04T12:32:48.416Z,10.90
2018-12-04T12:33:48.398Z,9.90
2018-12-04T12:34:48.388Z,11.30
2018-12-04T12:35:48.377Z,10.80
2018-12-04T12:36:48.376Z,8.60
2018-12-04T12:37:48.356Z,12.50
2018-12-04T12:38:48.355Z,11.10
2018-12-04T12:39:48.337Z,13.10
2018-12-04T12:40:48.326Z,13.20
2018-12-04T12:41:48.342Z,13.10
2018-12-04T12:42:48.304Z,9.80
2018-12-04T12:43:48.297Z,10.30
2018-12-04T12:44:48.287Z,11.70
2018-12-04T12:45:48.273Z,11.70
2018-12-04T12:46:48.262Z,12.50
2018-12-04T12:47:48.262Z,10.10
2018-12-04T12:48:48.242Z,11.70
2018-12-04T12:49:48.234Z,14.90
2018-12-04T12:50:48.224Z,11.80
2018-12-04T12:51:48.210Z,14.60
2018-12-04T12:52:48.208Z,11.50
2018-12-04T12:53:48.191Z,10.20
2018-12-04T12:54:48.181Z,13.20
2018-12-04T12:55:48.167Z,11.90
2018-12-04T12:56:48.157Z,12.90
2018-12-04T12:57:48.154Z,9.90
2018-12-04T12:58:48.135Z,11.40